Time,TemperatureF,DewpointF,PressureIn,WindDirection,WindDirectionDegrees,WindSpeedMPH,WindSpeedGustMPH,Humidity,HourlyPrecipIn,Conditions,Clouds,dailyrainin,SoftwareType,DateUTC
2013-07-10 00:01:00,76.5,72.7,30.10,East,91,0.0,0.0,88,0.00,,CLR,0.00,VWS V14.01,2013-07-10 04:01:00,
2013-07-10 00:02:00,76.5,72.7,30.10,East,91,0.0,0.0,88,0.00,,CLR,0.00,VWS V14.01,2013-07-10 04:02:00,
2013-07-10 00:07:00,76.4,72.6,30.10,East,91,0.0,0.0,88,0.00,,CLR,0.00,VWS V14.01,2013-07-10 04:07:00,
2013-07-10 00:12:00,76.3,72.8,30.10,East,91,0.0,0.0,89,0.00,,CLR,0.00,VWS V14.01,2013-07-10 04:12:00,
2013-07-10 00:17:00,76.2,72.7,30.09,East,91,0.0,0.0,89,0.00,,CLR,0.00,VWS V14.01,2013-07-10 04:17:00,
2013-07-10 00:22:00,76.0,72.5,30.09,East,91,0.0,0.0,89,0.00,,CLR,0.00,VWS V14.01,2013-07-10 04:22:00,
2013-07-10 00:28:00,75.9,72.4,30.09,East,91,0.0,0.0,89,0.00,,CLR,0.00,VWS V14.01,2013-07-10 04:28:00,
2013-07-10 00:33:00,75.9,72.8,30.09,East,91,0.0,0.0,90,0.00,,CLR,0.00,VWS V14.01,2013-07-10 04:33:00,
2013-07-10 00:38:00,75.8,72.7,30.09,East,91,0.0,0.0,90,0.00,,CLR,0.00,VWS V14.01,2013-07-10 04:38:00,
2013-07-10 00:43:00,75.7,72.6,30.08,East,91,0.0,0.0,90,0.00,,CLR,0.00,VWS V14.01,2013-07-10 04:43:00,
2013-07-10 00:48:00,75.6,72.8,30.09,East,91,0.0,0.0,91,0.00,,CLR,0.00,VWS V14.01,2013-07-10 04:48:00,
2013-07-10 00:53:00,75.6,72.8,30.08,East,91,0.0,0.0,91,0.00,,CLR,0.00,VWS V14.01,2013-07-10 04:53:00,
2013-07-10 00:58:00,75.6,72.8,30.08,East,91,0.0,0.0,91,0.00,,CLR,0.00,VWS V14.01,2013-07-10 04:58:00,
2013-07-10 01:03:00,75.6,72.8,30.08,East,91,0.0,0.0,91,0.00,,CLR,0.00,VWS V14.01,2013-07-10 05:03:00,
2013-07-10 01:08:00,75.6,73.1,30.08,East,91,0.0,0.0,92,0.00,,CLR,0.00,VWS V14.01,2013-07-10 05:08:00,
2013-07-10 01:14:00,75.6,73.1,30.08,East,91,0.0,0.0,92,0.00,,CLR,0.00,VWS V14.01,2013-07-10 05:14:00,
2013-07-10 01:19:00,75.5,73.0,30.08,East,91,0.0,0.0,92,0.00,,CLR,0.00,VWS V14.01,2013-07-10 05:19:00,
2013-07-10 01:24:00,75.5,73.0,30.08,East,91,0.0,0.0,92,0.00,,CLR,0.00,VWS V14.01,2013-07-10 05:24:00,
2013-07-10 01:29:00,75.4,72.9,30.08,East,91,0.0,0.0,92,0.00,,CLR,0.00,VWS V14.01,2013-07-10 05:29:00,
2013-07-10 01:34:00,75.2,72.7,30.08,East,91,0.0,0.0,92,0.00,,CLR,0.00,VWS V14.01,2013-07-10 05:34:00,
2013-07-10 01:39:00,75.1,72.6,30.08,East,91,0.0,0.0,92,0.00,,CLR,0.00,VWS V14.01,2013-07-10 05:39:00,
2013-07-10 01:44:00,75.0,72.8,30.08,East,91,0.0,0.0,93,0.00,,CLR,0.00,VWS V14.01,2013-07-10 05:44:00,
2013-07-10 01:49:00,74.9,72.7,30.09,East,91,0.0,0.0,93,0.00,,CLR,0.00,VWS V14.01,2013-07-10 05:49:00,
2013-07-10 01:54:00,74.8,72.6,30.08,East,91,0.0,0.0,93,0.00,,CLR,0.00,VWS V14.01,2013-07-10 05:54:00,
2013-07-10 01:59:00,74.7,72.6,30.08,East,91,0.0,0.0,93,0.00,,CLR,0.00,VWS V14.01,2013-07-10 05:59:00,
2013-07-10 02:04:00,74.6,72.4,30.08,East,91,0.0,0.0,93,0.00,,CLR,0.00,VWS V14.01,2013-07-10 06:04:00,
2013-07-10 02:09:00,74.5,72.7,30.09,East,91,0.0,0.0,94,0.00,,CLR,0.00,VWS V14.01,2013-07-10 06:09:00,
2013-07-10 02:14:00,74.5,72.7,30.09,East,91,0.0,0.0,94,0.00,,CLR,0.00,VWS V14.01,2013-07-10 06:14:00,
2013-07-10 02:19:00,74.4,72.6,30.08,East,91,0.0,0.0,94,0.00,,CLR,0.00,VWS V14.01,2013-07-10 06:19:00,
2013-07-10 02:24:00,74.3,72.5,30.08,East,91,0.0,0.0,94,0.00,,CLR,0.00,VWS V14.01,2013-07-10 06:24:00,
2013-07-10 02:30:00,74.4,72.6,30.08,East,91,0.0,0.0,94,0.00,,CLR,0.00,VWS V14.01,2013-07-10 06:30:00,
2013-07-10 02:35:00,74.3,72.5,30.08,East,91,0.0,0.0,94,0.00,,CLR,0.00,VWS V14.01,2013-07-10 06:35:00,
2013-07-10 02:40:00,74.2,72.4,30.08,East,91,0.0,0.0,94,0.00,,CLR,0.00,VWS V14.01,2013-07-10 06:40:00,
2013-07-10 02:45:00,74.2,72.7,30.08,East,91,0.0,0.0,95,0.00,,CLR,0.00,VWS V14.01,2013-07-10 06:45:00,
2013-07-10 02:50:00,74.2,72.7,30.08,East,91,0.0,0.0,95,0.00,,CLR,0.00,VWS V14.01,2013-07-10 06:50:00,
2013-07-10 02:55:00,74.1,72.6,30.08,East,91,0.0,0.0,95,0.00,,CLR,0.00,VWS V14.01,2013-07-10 06:55:00,
2013-07-10 03:00:00,74.1,72.6,30.08,East,91,0.0,0.0,95,0.00,,CLR,0.00,VWS V14.01,2013-07-10 07:00:00,
2013-07-10 03:05:00,74.0,72.5,30.08,East,91,0.0,0.0,95,0.00,,CLR,0.00,VWS V14.01,2013-07-10 07:05:00,
2013-07-10 03:10:00,73.9,72.4,30.08,East,91,0.0,0.0,95,0.00,,CLR,0.00,VWS V14.01,2013-07-10 07:10:00,
2013-07-10 03:15:00,73.9,72.4,30.08,East,91,0.0,0.0,95,0.00,,CLR,0.00,VWS V14.01,2013-07-10 07:15:00,
2013-07-10 03:21:00,73.8,72.3,30.07,East,91,0.0,0.0,95,0.00,,CLR,0.00,VWS V14.01,2013-07-10 07:21:00,
2013-07-10 03:26:00,73.7,72.2,30.07,East,91,0.0,0.0,95,0.00,,CLR,0.00,VWS V14.01,2013-07-10 07:26:00,
2013-07-10 03:31:00,73.6,72.1,30.08,East,91,0.0,0.0,95,0.00,,CLR,0.00,VWS V14.01,2013-07-10 07:31:00,
2013-07-10 03:36:00,73.5,72.0,30.08,East,91,0.0,0.0,95,0.00,,CLR,0.00,VWS V14.01,2013-07-10 07:36:00,
2013-07-10 03:41:00,73.6,72.4,30.07,East,91,0.0,0.0,96,0.00,,CLR,0.00,VWS V14.01,2013-07-10 07:41:00,
2013-07-10 03:46:00,73.5,72.0,30.07,East,91,0.0,0.0,95,0.00,,CLR,0.00,VWS V14.01,2013-07-10 07:46:00,
2013-07-10 03:51:00,73.5,72.3,30.07,East,91,0.0,0.0,96,0.00,,CLR,0.00,VWS V14.01,2013-07-10 07:51:00,
2013-07-10 03:56:00,73.4,72.2,30.07,East,91,0.0,0.0,96,0.00,,CLR,0.00,VWS V14.01,2013-07-10 07:56:00,
2013-07-10 04:01:00,73.4,72.2,30.08,East,91,0.0,0.0,96,0.00,,FEW015,0.00,VWS V14.01,2013-07-10 08:01:00,
2013-07-10 04:07:00,73.5,72.3,30.08,East,91,0.0,0.0,96,0.00,,FEW015,0.00,VWS V14.01,2013-07-10 08:07:00,
2013-07-10 04:12:00,73.5,72.3,30.08,East,91,0.0,0.0,96,0.00,,FEW015,0.00,VWS V14.01,2013-07-10 08:12:00,
2013-07-10 04:17:00,73.4,72.2,30.08,East,91,0.0,0.0,96,0.00,,FEW015,0.00,VWS V14.01,2013-07-10 08:17:00,
2013-07-10 04:22:00,73.4,72.2,30.08,East,91,0.0,0.0,96,0.00,,FEW015,0.00,VWS V14.01,2013-07-10 08:22:00,
2013-07-10 04:27:00,73.4,72.2,30.07,East,91,0.0,0.0,96,0.00,,FEW015,0.00,VWS V14.01,2013-07-10 08:27:00,
2013-07-10 04:32:00,73.4,72.2,30.07,East,91,0.0,0.0,96,0.00,,FEW015,0.00,VWS V14.01,2013-07-10 08:32:00,
2013-07-10 04:37:00,73.5,72.3,30.07,East,91,0.0,0.0,96,0.00,,FEW015,0.00,VWS V14.01,2013-07-10 08:37:00,
2013-07-10 04:42:00,73.4,72.2,30.07,East,91,0.0,0.0,96,0.00,,FEW015,0.00,VWS V14.01,2013-07-10 08:42:00,
2013-07-10 04:47:00,73.3,72.1,30.07,East,91,0.0,0.0,96,0.00,,FEW015,0.00,VWS V14.01,2013-07-10 08:47:00,
2013-07-10 04:52:00,73.2,72.0,30.07,East,91,0.0,0.0,96,0.00,,FEW015,0.00,VWS V14.01,2013-07-10 08:52:00,
2013-07-10 04:58:00,73.1,71.9,30.07,East,91,0.0,0.0,96,0.00,,FEW015,0.00,VWS V14.01,2013-07-10 08:58:00,
2013-07-10 05:03:00,73.2,72.3,30.07,East,91,0.0,0.0,97,0.00,,FEW025,0.00,VWS V14.01,2013-07-10 09:03:00,
2013-07-10 05:08:00,73.2,72.3,30.07,East,91,0.0,0.0,97,0.00,,FEW025,0.00,VWS V14.01,2013-07-10 09:08:00,
2013-07-10 05:13:00,73.1,72.2,30.07,East,91,0.0,0.0,97,0.00,,FEW025,0.00,VWS V14.01,2013-07-10 09:13:00,
2013-07-10 05:18:00,73.1,72.2,30.07,East,91,0.0,0.0,97,0.00,,FEW025,0.00,VWS V14.01,2013-07-10 09:18:00,
2013-07-10 05:23:00,73.1,72.2,30.07,East,91,0.0,0.0,97,0.00,,FEW025,0.00,VWS V14.01,2013-07-10 09:23:00,
2013-07-10 05:28:00,73.1,72.2,30.06,East,91,0.0,0.0,97,0.00,,FEW025,0.00,VWS V14.01,2013-07-10 09:28:00,
2013-07-10 05:33:00,73.0,72.1,30.06,East,91,0.0,0.0,97,0.00,,FEW025,0.00,VWS V14.01,2013-07-10 09:33:00,
2013-07-10 05:38:00,73.0,72.1,30.06,East,91,0.0,0.0,97,0.00,,FEW025,0.00,VWS V14.01,2013-07-10 09:38:00,
2013-07-10 05:43:00,72.9,71.7,30.06,East,91,0.0,0.0,96,0.00,,FEW025,0.00,VWS V14.01,2013-07-10 09:43:00,
2013-07-10 05:49:00,72.9,72.0,30.07,East,91,0.0,0.0,97,0.00,,FEW025,0.00,VWS V14.01,2013-07-10 09:49:00,
2013-07-10 05:54:00,72.9,72.0,30.07,East,91,0.0,0.0,97,0.00,,FEW025,0.00,VWS V14.01,2013-07-10 09:54:00,
2013-07-10 05:59:00,72.9,72.0,30.07,East,91,0.0,0.0,97,0.00,,FEW025,0.00,VWS V14.01,2013-07-10 09:59:00,
2013-07-10 06:04:00,72.9,72.0,30.07,East,91,0.0,0.0,97,0.00,,SCT070,0.00,VWS V14.01,2013-07-10 10:04:00,
2013-07-10 06:09:00,72.8,71.9,30.07,East,91,0.0,0.0,97,0.00,,SCT070,0.00,VWS V14.01,2013-07-10 10:09:00,
2013-07-10 06:14:00,72.8,71.9,30.07,East,91,0.0,0.0,97,0.00,,SCT070,0.00,VWS V14.01,2013-07-10 10:14:00,
2013-07-10 06:19:00,72.7,71.8,30.06,East,91,0.0,0.0,97,0.00,,SCT070,0.00,VWS V14.01,2013-07-10 10:19:00,
2013-07-10 06:24:00,72.6,71.7,30.06,East,91,0.0,0.0,97,0.00,,SCT070,0.00,VWS V14.01,2013-07-10 10:24:00,
2013-07-10 06:29:00,72.6,71.7,30.06,East,91,0.0,0.0,97,0.00,,SCT070,0.00,VWS V14.01,2013-07-10 10:29:00,
2013-07-10 06:34:00,72.6,71.7,30.06,East,91,0.0,0.0,97,0.00,,SCT070,0.00,VWS V14.01,2013-07-10 10:34:00,
2013-07-10 06:40:00,72.6,71.7,30.06,East,91,0.0,0.0,97,0.00,,SCT070,0.00,VWS V14.01,2013-07-10 10:40:00,
2013-07-10 06:45:00,72.6,71.7,30.06,East,91,0.0,0.0,97,0.00,,SCT070,0.00,VWS V14.01,2013-07-10 10:45:00,
2013-07-10 06:50:00,72.5,71.6,30.06,East,91,0.0,0.0,97,0.00,,SCT070,0.00,VWS V14.01,2013-07-10 10:50:00,
2013-07-10 06:55:00,72.5,71.6,30.07,East,91,0.0,0.0,97,0.00,,SCT070,0.00,VWS V14.01,2013-07-10 10:55:00,
2013-07-10 07:00:00,72.5,71.9,30.07,East,91,0.0,0.0,98,0.00,,SCT250,0.00,VWS V14.01,2013-07-10 11:00:00,
2013-07-10 07:05:00,72.6,72.0,30.07,East,91,0.0,0.0,98,0.00,,SCT250,0.00,VWS V14.01,2013-07-10 11:05:00,
2013-07-10 07:10:00,72.6,72.0,30.07,East,91,0.0,0.0,98,0.00,,SCT250,0.00,VWS V14.01,2013-07-10 11:10:00,
2013-07-10 07:15:00,72.7,72.1,30.07,East,91,0.0,0.0,98,0.00,,SCT250,0.00,VWS V14.01,2013-07-10 11:15:00,
2013-07-10 07:21:00,72.8,72.2,30.07,East,91,0.0,0.0,98,0.00,,SCT250,0.00,VWS V14.01,2013-07-10 11:21:00,
2013-07-10 07:26:00,73.0,72.4,30.08,East,91,0.0,0.0,98,0.00,,SCT250,0.00,VWS V14.01,2013-07-10 11:26:00,
2013-07-10 07:31:00,73.1,72.5,30.08,East,91,0.0,0.0,98,0.00,,SCT250,0.00,VWS V14.01,2013-07-10 11:31:00,
2013-07-10 07:36:00,73.6,73.0,30.08,East,91,0.0,2.0,98,0.00,,SCT250,0.00,VWS V14.01,2013-07-10 11:36:00,
2013-07-10 07:41:00,73.9,73.6,30.08,East,91,0.0,0.0,99,0.00,,SCT250,0.00,VWS V14.01,2013-07-10 11:41:00,
2013-07-10 07:46:00,74.2,73.6,30.08,East,91,0.0,0.0,98,0.00,,SCT250,0.00,VWS V14.01,2013-07-10 11:46:00,
2013-07-10 07:51:00,74.5,73.9,30.08,East,91,0.0,0.0,98,0.00,,SCT250,0.00,VWS V14.01,2013-07-10 11:51:00,
2013-07-10 07:56:00,75.0,74.4,30.08,East,84,4.0,4.0,98,0.00,,SCT250,0.00,VWS V14.01,2013-07-10 11:56:00,
2013-07-10 08:01:00,75.5,74.3,30.08,East,84,0.0,0.0,96,0.00,,SCT100,0.00,VWS V14.01,2013-07-10 12:01:00,
2013-07-10 08:07:00,76.3,74.8,30.08,East,84,2.0,2.0,95,0.00,,SCT100,0.00,VWS V14.01,2013-07-10 12:07:00,
2013-07-10 08:12:00,77.1,74.9,30.08,ESE,106,4.0,4.0,93,0.00,,SCT100,0.00,VWS V14.01,2013-07-10 12:12:00,
2013-07-10 08:17:00,78.2,75.4,30.08,ESE,118,2.0,4.0,91,0.00,,SCT100,0.00,VWS V14.01,2013-07-10 12:17:00,
2013-07-10 08:22:00,79.0,75.2,30.08,East,101,0.0,6.0,88,0.00,,SCT100,0.00,VWS V14.01,2013-07-10 12:22:00,
2013-07-10 08:27:00,79.7,75.5,30.08,SSE,165,0.0,0.0,87,0.00,,SCT100,0.00,VWS V14.01,2013-07-10 12:27:00,
2013-07-10 08:32:00,80.4,75.8,30.08,ESE,104,0.0,2.0,86,0.00,,SCT100,0.00,VWS V14.01,2013-07-10 12:32:00,
2013-07-10 08:37:00,81.1,75.8,30.09,ESE,115,0.0,6.0,84,0.00,,SCT100,0.00,VWS V14.01,2013-07-10 12:37:00,
2013-07-10 08:42:00,81.4,75.7,30.09,ESE,116,4.0,4.0,83,0.00,,SCT100,0.00,VWS V14.01,2013-07-10 12:42:00,
2013-07-10 08:48:00,81.6,76.3,30.09,ESE,118,0.0,4.0,84,0.00,,SCT100,0.00,VWS V14.01,2013-07-10 12:48:00,
2013-07-10 08:53:00,82.0,75.6,30.09,East,101,0.0,4.0,81,0.00,,SCT100,0.00,VWS V14.01,2013-07-10 12:53:00,
2013-07-10 08:58:00,82.5,76.1,30.09,ESE,118,2.0,4.0,81,0.00,,SCT100,0.00,VWS V14.01,2013-07-10 12:58:00,
2013-07-10 09:03:00,82.9,75.3,30.09,ENE,73,4.0,8.0,78,0.00,,SCT100,0.00,VWS V14.01,2013-07-10 13:03:00,
2013-07-10 09:08:00,82.9,74.9,30.09,ESE,109,2.0,6.0,77,0.00,,SCT100,0.00,VWS V14.01,2013-07-10 13:08:00,
2013-07-10 09:13:00,83.3,74.9,30.09,East,95,2.0,8.0,76,0.00,,SCT100,0.00,VWS V14.01,2013-07-10 13:13:00,
2013-07-10 09:18:00,83.8,76.2,30.09,East,98,2.0,2.0,78,0.00,,SCT100,0.00,VWS V14.01,2013-07-10 13:18:00,
2013-07-10 09:23:00,84.2,76.2,30.09,East,91,2.0,4.0,77,0.00,,SCT100,0.00,VWS V14.01,2013-07-10 13:23:00,
2013-07-10 09:29:00,84.2,74.6,30.09,ENE,72,2.0,6.0,73,0.00,,SCT100,0.00,VWS V14.01,2013-07-10 13:29:00,
2013-07-10 09:34:00,84.0,74.8,30.09,ENE,74,2.0,4.0,74,0.00,,SCT100,0.00,VWS V14.01,2013-07-10 13:34:00,
2013-07-10 09:39:00,84.2,76.2,30.09,East,82,4.0,4.0,77,0.00,,SCT100,0.00,VWS V14.01,2013-07-10 13:39:00,
2013-07-10 09:44:00,84.4,75.2,30.09,East,93,2.0,8.0,74,0.00,,SCT100,0.00,VWS V14.01,2013-07-10 13:44:00,
2013-07-10 09:49:00,84.3,75.1,30.09,ESE,118,2.0,4.0,74,0.00,,SCT100,0.00,VWS V14.01,2013-07-10 13:49:00,
2013-07-10 09:54:00,84.3,74.3,30.09,ESE,107,6.0,8.0,72,0.00,,SCT100,0.00,VWS V14.01,2013-07-10 13:54:00,
2013-07-10 09:59:00,84.3,75.1,30.09,East,98,0.0,6.0,74,0.00,,SCT100,0.00,VWS V14.01,2013-07-10 13:59:00,
2013-07-10 10:04:00,84.8,75.6,30.09,SE,139,0.0,4.0,74,0.00,,SCT120,0.00,VWS V14.01,2013-07-10 14:04:00,
2013-07-10 10:09:00,85.3,74.4,30.09,ESE,109,0.0,8.0,70,0.00,,SCT120,0.00,VWS V14.01,2013-07-10 14:09:00,
2013-07-10 10:14:00,85.6,73.8,30.09,ENE,72,6.0,10.0,68,0.00,,SCT120,0.00,VWS V14.01,2013-07-10 14:14:00,
2013-07-10 10:19:00,85.4,74.5,30.09,WSW,245,0.0,10.0,70,0.00,,SCT120,0.00,VWS V14.01,2013-07-10 14:19:00,
2013-07-10 10:24:00,85.4,74.9,30.08,East,101,2.0,6.0,71,0.00,,SCT120,0.00,VWS V14.01,2013-07-10 14:24:00,
2013-07-10 10:29:00,85.8,74.5,30.09,ESE,103,2.0,6.0,69,0.00,,SCT120,0.00,VWS V14.01,2013-07-10 14:29:00,
2013-07-10 10:34:00,85.8,74.5,30.09,ESE,117,2.0,4.0,69,0.00,,SCT120,0.00,VWS V14.01,2013-07-10 14:34:00,
2013-07-10 10:39:00,85.7,73.5,30.09,ESE,108,4.0,4.0,67,0.00,,SCT120,0.00,VWS V14.01,2013-07-10 14:39:00,
2013-07-10 10:45:00,85.4,73.2,30.09,ESE,107,2.0,2.0,67,0.00,,SCT120,0.00,VWS V14.01,2013-07-10 14:45:00,
2013-07-10 10:50:00,84.8,73.5,30.09,ESE,110,2.0,2.0,69,0.00,,SCT120,0.00,VWS V14.01,2013-07-10 14:50:00,
2013-07-10 10:55:00,84.5,74.1,30.09,East,93,0.0,2.0,71,0.00,,SCT120,0.00,VWS V14.01,2013-07-10 14:55:00,
2013-07-10 11:00:00,84.9,73.6,30.09,ESE,107,0.0,0.0,69,0.00,,SCT120,0.00,VWS V14.01,2013-07-10 15:00:00,
2013-07-10 11:05:00,85.1,73.4,30.09,ESE,107,0.0,0.0,68,0.00,,SCT250,0.00,VWS V14.01,2013-07-10 15:05:00,
2013-07-10 11:10:00,84.8,73.1,30.09,ESE,107,2.0,2.0,68,0.00,,SCT250,0.00,VWS V14.01,2013-07-10 15:10:00,
2013-07-10 11:15:00,84.7,73.4,30.09,ESE,107,2.0,2.0,69,0.00,,SCT250,0.00,VWS V14.01,2013-07-10 15:15:00,
2013-07-10 11:20:00,84.8,73.5,30.09,East,88,2.0,4.0,69,0.00,,SCT250,0.00,VWS V14.01,2013-07-10 15:20:00,
2013-07-10 11:25:00,84.6,73.7,30.09,SSE,164,0.0,2.0,70,0.00,,SCT250,0.00,VWS V14.01,2013-07-10 15:25:00,
2013-07-10 11:31:00,85.1,75.1,30.08,ESE,118,2.0,2.0,72,0.00,,SCT250,0.00,VWS V14.01,2013-07-10 15:31:00,
2013-07-10 11:36:00,85.9,74.1,30.08,East,91,2.0,4.0,68,0.00,,SCT250,0.00,VWS V14.01,2013-07-10 15:36:00,
2013-07-10 11:41:00,86.6,75.7,30.08,ENE,71,0.0,2.0,70,0.00,,SCT250,0.00,VWS V14.01,2013-07-10 15:41:00,
2013-07-10 11:46:00,87.4,74.7,30.08,SE,141,0.0,2.0,66,0.00,,SCT250,0.00,VWS V14.01,2013-07-10 15:46:00,
2013-07-10 11:51:00,87.7,73.1,30.08,SE,142,2.0,6.0,62,0.00,,SCT250,0.00,VWS V14.01,2013-07-10 15:51:00,
2013-07-10 11:56:00,88.4,74.7,30.08,ESE,103,8.0,8.0,64,0.00,,SCT250,0.00,VWS V14.01,2013-07-10 15:56:00,
2013-07-10 12:01:00,88.8,74.1,30.08,ESE,120,2.0,10.0,62,0.00,,SCT250,0.00,VWS V14.01,2013-07-10 16:01:00,
2013-07-10 12:06:00,89.0,73.3,30.08,ENE,58,6.0,14.0,60,0.00,,SCT250,0.00,VWS V14.01,2013-07-10 16:06:00,
2013-07-10 12:11:00,87.8,73.6,30.07,ESE,108,0.0,4.0,63,0.00,,SCT250,0.00,VWS V14.01,2013-07-10 16:11:00,
2013-07-10 12:16:00,87.5,74.3,30.08,SE,138,2.0,6.0,65,0.00,,SCT250,0.00,VWS V14.01,2013-07-10 16:16:00,
2013-07-10 12:21:00,88.2,74.5,30.08,ESE,119,0.0,6.0,64,0.00,,SCT250,0.00,VWS V14.01,2013-07-10 16:21:00,
2013-07-10 12:26:00,89.2,74.5,30.08,East,93,6.0,14.0,62,0.00,,SCT250,0.00,VWS V14.01,2013-07-10 16:26:00,
2013-07-10 12:32:00,89.7,74.5,30.08,South,186,0.0,8.0,61,0.00,,SCT250,0.00,VWS V14.01,2013-07-10 16:32:00,
2013-07-10 12:37:00,89.7,73.5,30.08,SE,132,0.0,6.0,59,0.00,,SCT250,0.00,VWS V14.01,2013-07-10 16:37:00,
2013-07-10 12:42:00,89.6,73.9,30.08,ESE,111,2.0,8.0,60,0.00,,SCT250,0.00,VWS V14.01,2013-07-10 16:42:00,
2013-07-10 12:47:00,90.0,73.2,30.08,ESE,112,2.0,6.0,58,0.00,,SCT250,0.00,VWS V14.01,2013-07-10 16:47:00,
2013-07-10 12:52:00,90.1,73.8,30.07,ESE,107,2.0,6.0,59,0.00,,SCT250,0.00,VWS V14.01,2013-07-10 16:52:00,
2013-07-10 12:57:00,89.7,74.0,30.07,ENE,76,4.0,4.0,60,0.00,,SCT250,0.00,VWS V14.01,2013-07-10 16:57:00,
2013-07-10 13:02:00,90.0,74.8,30.07,East,98,6.0,8.0,61,0.00,,SCT250,0.00,VWS V14.01,2013-07-10 17:02:00,
2013-07-10 13:07:00,90.4,72.6,30.07,East,84,6.0,6.0,56,0.00,,SCT250,0.00,VWS V14.01,2013-07-10 17:07:00,
2013-07-10 13:12:00,90.3,71.4,30.07,ENE,75,0.0,6.0,54,0.00,,SCT250,0.00,VWS V14.01,2013-07-10 17:12:00,
2013-07-10 13:18:00,90.1,72.3,30.06,South,170,0.0,2.0,56,0.00,,SCT250,0.00,VWS V14.01,2013-07-10 17:18:00,
2013-07-10 13:23:00,89.8,74.1,30.06,ESE,120,2.0,4.0,60,0.00,,SCT250,0.00,VWS V14.01,2013-07-10 17:23:00,
2013-07-10 13:28:00,90.5,74.2,30.06,East,100,0.0,6.0,59,0.00,,SCT250,0.00,VWS V14.01,2013-07-10 17:28:00,
2013-07-10 13:33:00,91.0,71.5,30.06,East,88,4.0,10.0,53,0.00,,SCT250,0.00,VWS V14.01,2013-07-10 17:33:00,
2013-07-10 13:38:00,90.9,73.0,30.05,ESE,107,2.0,6.0,56,0.00,,SCT250,0.00,VWS V14.01,2013-07-10 17:38:00,
2013-07-10 13:43:00,90.3,70.9,30.05,West,269,0.0,6.0,53,0.00,,SCT250,0.00,VWS V14.01,2013-07-10 17:43:00,
2013-07-10 13:48:00,90.1,73.8,30.05,West,273,2.0,2.0,59,0.00,,SCT250,0.00,VWS V14.01,2013-07-10 17:48:00,
2013-07-10 13:54:00,90.4,74.1,30.05,ESE,105,6.0,6.0,59,0.00,,SCT250,0.00,VWS V14.01,2013-07-10 17:54:00,
2013-07-10 13:59:00,91.4,73.0,30.05,ESE,111,4.0,6.0,55,0.00,,SCT250,0.00,VWS V14.01,2013-07-10 17:59:00,
2013-07-10 14:04:00,91.3,72.9,30.04,ESE,116,0.0,16.0,55,0.00,,BKN250,0.00,VWS V14.01,2013-07-10 18:04:00,
2013-07-10 14:09:00,90.8,75.0,30.04,SE,126,18.0,20.0,60,0.00,,BKN250,0.00,VWS V14.01,2013-07-10 18:09:00,
2013-07-10 14:14:00,90.5,74.7,30.04,ESE,119,12.0,28.0,60,0.00,,BKN250,0.00,VWS V14.01,2013-07-10 18:14:00,
2013-07-10 14:19:00,89.6,75.3,30.04,SE,134,8.0,12.0,63,0.00,,BKN250,0.00,VWS V14.01,2013-07-10 18:19:00,
2013-07-10 14:24:00,89.0,74.8,30.03,East,91,6.0,16.0,63,0.00,,BKN250,0.00,VWS V14.01,2013-07-10 18:24:00,
2013-07-10 14:29:00,89.3,76.0,30.03,East,86,10.0,18.0,65,0.00,,BKN250,0.00,VWS V14.01,2013-07-10 18:29:00,
2013-07-10 14:34:00,90.0,75.7,30.03,ENE,66,4.0,16.0,63,0.00,,BKN250,0.00,VWS V14.01,2013-07-10 18:34:00,
2013-07-10 14:40:00,90.3,75.0,30.03,ENE,73,4.0,8.0,61,0.00,,BKN250,0.00,VWS V14.01,2013-07-10 18:40:00,
2013-07-10 14:45:00,90.6,74.8,30.02,ESE,109,8.0,8.0,60,0.00,,BKN250,0.00,VWS V14.01,2013-07-10 18:45:00,
2013-07-10 14:50:00,90.8,74.0,30.02,East,99,4.0,4.0,58,0.00,,BKN250,0.00,VWS V14.01,2013-07-10 18:50:00,
2013-07-10 14:55:00,90.8,75.0,30.02,ENE,59,0.0,4.0,60,0.00,,BKN250,0.00,VWS V14.01,2013-07-10 18:55:00,
2013-07-10 15:00:00,91.0,75.7,30.02,SE,128,2.0,6.0,61,0.00,,-RA,0.00,VWS V14.01,2013-07-10 19:00:00,
2013-07-10 15:05:00,91.3,75.0,30.02,ESE,105,10.0,16.0,59,0.00,,-RA,0.00,VWS V14.01,2013-07-10 19:05:00,
2013-07-10 15:10:00,91.3,75.0,30.02,ENE,70,6.0,22.0,59,0.00,,-RA,0.00,VWS V14.01,2013-07-10 19:10:00,
2013-07-10 15:15:00,90.3,74.0,30.02,ESE,122,8.0,16.0,59,0.00,,-RA,0.00,VWS V14.01,2013-07-10 19:15:00,
2013-07-10 15:21:00,89.8,74.1,30.02,East,101,20.0,20.0,60,0.00,,-RA,0.00,VWS V14.01,2013-07-10 19:21:00,
2013-07-10 15:26:00,89.4,74.2,30.02,East,95,2.0,8.0,61,0.00,,-RA,0.00,VWS V14.01,2013-07-10 19:26:00,
2013-07-10 15:31:00,89.1,74.4,30.02,East,97,4.0,10.0,62,0.00,,-RA,0.00,VWS V14.01,2013-07-10 19:31:00,
2013-07-10 15:36:00,88.4,73.7,30.01,NE,47,2.0,8.0,62,0.00,,-RA,0.00,VWS V14.01,2013-07-10 19:36:00,
2013-07-10 15:41:00,88.1,73.4,30.01,ESE,118,4.0,8.0,62,0.00,,-RA,0.00,VWS V14.01,2013-07-10 19:41:00,
2013-07-10 15:46:00,88.2,74.0,30.01,ENE,76,2.0,6.0,63,0.00,,-RA,0.00,VWS V14.01,2013-07-10 19:46:00,
2013-07-10 15:51:00,88.3,74.1,30.01,ENE,78,0.0,4.0,63,0.00,,-RA,0.00,VWS V14.01,2013-07-10 19:51:00,
2013-07-10 15:56:00,88.5,74.8,30.01,East,89,10.0,18.0,64,0.00,,-RA,0.00,VWS V14.01,2013-07-10 19:56:00,
2013-07-10 16:01:00,88.7,75.4,30.00,SSE,153,10.0,10.0,65,0.00,,BKN250,0.00,VWS V14.01,2013-07-10 20:01:00,
2013-07-10 16:06:00,89.1,75.3,30.00,East,79,6.0,12.0,64,0.00,,BKN250,0.00,VWS V14.01,2013-07-10 20:06:00,
2013-07-10 16:11:00,89.2,75.0,30.00,ESE,122,6.0,10.0,63,0.00,,BKN250,0.00,VWS V14.01,2013-07-10 20:11:00,
2013-07-10 16:16:00,89.1,74.9,30.00,SSE,151,6.0,8.0,63,0.00,,BKN250,0.00,VWS V14.01,2013-07-10 20:16:00,
2013-07-10 16:21:00,88.8,75.5,30.00,SE,144,2.0,4.0,65,0.00,,BKN250,0.00,VWS V14.01,2013-07-10 20:21:00,
2013-07-10 16:27:00,88.9,74.7,30.00,East,88,2.0,10.0,63,0.00,,BKN250,0.00,VWS V14.01,2013-07-10 20:27:00,
2013-07-10 16:32:00,88.6,74.4,29.99,East,95,2.0,6.0,63,0.00,,BKN250,0.00,VWS V14.01,2013-07-10 20:32:00,
2013-07-10 16:37:00,88.4,74.7,29.99,ENE,76,2.0,6.0,64,0.00,,BKN250,0.00,VWS V14.01,2013-07-10 20:37:00,
2013-07-10 16:42:00,88.4,74.2,29.99,SSE,155,2.0,6.0,63,0.00,,BKN250,0.00,VWS V14.01,2013-07-10 20:42:00,
2013-07-10 16:47:00,88.5,74.3,29.99,East,97,6.0,14.0,63,0.00,,BKN250,0.00,VWS V14.01,2013-07-10 20:47:00,
2013-07-10 16:52:00,88.3,73.2,29.99,East,88,6.0,10.0,61,0.00,,BKN250,0.00,VWS V14.01,2013-07-10 20:52:00,
2013-07-10 16:57:00,87.9,73.7,29.99,SE,124,4.0,6.0,63,0.00,,BKN250,0.00,VWS V14.01,2013-07-10 20:57:00,
2013-07-10 17:03:00,87.7,74.0,29.99,East,96,2.0,10.0,64,0.00,,BKN200,0.00,VWS V14.01,2013-07-10 21:03:00,
2013-07-10 17:08:00,87.8,74.1,29.99,SSE,167,2.0,6.0,64,0.00,,BKN200,0.00,VWS V14.01,2013-07-10 21:08:00,
2013-07-10 17:13:00,88.0,73.8,29.98,ESE,103,2.0,6.0,63,0.00,,BKN200,0.00,VWS V14.01,2013-07-10 21:13:00,
2013-07-10 17:18:00,88.0,74.8,29.98,ESE,113,2.0,4.0,65,0.00,,BKN200,0.00,VWS V14.01,2013-07-10 21:18:00,
2013-07-10 17:23:00,87.8,75.0,29.98,East,92,4.0,6.0,66,0.00,,BKN200,0.00,VWS V14.01,2013-07-10 21:23:00,
2013-07-10 17:28:00,87.7,74.9,29.98,ESE,113,0.0,4.0,66,0.00,,BKN200,0.00,VWS V14.01,2013-07-10 21:28:00,
2013-07-10 17:33:00,87.8,75.0,29.98,NE,53,0.0,2.0,66,0.00,,BKN200,0.00,VWS V14.01,2013-07-10 21:33:00,
2013-07-10 17:38:00,87.6,74.4,29.98,ESE,112,2.0,6.0,65,0.00,,BKN200,0.00,VWS V14.01,2013-07-10 21:38:00,
2013-07-10 17:43:00,87.4,75.6,29.98,East,80,4.0,6.0,68,0.00,,BKN200,0.00,VWS V14.01,2013-07-10 21:43:00,
2013-07-10 17:48:00,87.2,74.9,29.98,East,80,0.0,4.0,67,0.00,,BKN200,0.00,VWS V14.01,2013-07-10 21:48:00,
2013-07-10 17:54:00,87.3,74.1,29.98,SE,143,2.0,4.0,65,0.00,,BKN200,0.00,VWS V14.01,2013-07-10 21:54:00,
2013-07-10 17:59:00,87.4,73.3,29.98,SSE,150,0.0,4.0,63,0.00,,BKN200,0.00,VWS V14.01,2013-07-10 21:59:00,
2013-07-10 18:04:00,87.5,73.8,29.98,ESE,114,0.0,8.0,64,0.00,,BKN200,0.00,VWS V14.01,2013-07-10 22:04:00,
2013-07-10 18:09:00,87.9,73.7,29.98,East,94,4.0,12.0,63,0.00,,BKN200,0.00,VWS V14.01,2013-07-10 22:09:00,
2013-07-10 18:14:00,88.4,75.1,29.98,ENE,77,6.0,8.0,65,0.00,,BKN200,0.00,VWS V14.01,2013-07-10 22:14:00,
2013-07-10 18:19:00,88.3,74.6,29.98,East,93,2.0,14.0,64,0.00,,BKN200,0.00,VWS V14.01,2013-07-10 22:19:00,
2013-07-10 18:24:00,88.1,74.4,29.98,ESE,103,6.0,12.0,64,0.00,,BKN200,0.00,VWS V14.01,2013-07-10 22:24:00,
2013-07-10 18:29:00,88.1,74.4,29.98,ESE,102,4.0,8.0,64,0.00,,BKN200,0.00,VWS V14.01,2013-07-10 22:29:00,
2013-07-10 18:34:00,87.8,74.6,29.98,East,101,6.0,6.0,65,0.00,,BKN200,0.00,VWS V14.01,2013-07-10 22:34:00,
2013-07-10 18:39:00,87.4,74.7,29.99,ENE,78,10.0,10.0,66,0.00,,BKN200,0.00,VWS V14.01,2013-07-10 22:39:00,
2013-07-10 18:44:00,86.9,74.2,29.99,East,97,8.0,12.0,66,0.00,,BKN200,0.00,VWS V14.01,2013-07-10 22:44:00,
2013-07-10 18:49:00,86.7,74.4,29.99,ENE,68,4.0,10.0,67,0.00,,BKN200,0.00,VWS V14.01,2013-07-10 22:49:00,
2013-07-10 18:55:00,86.4,74.2,29.98,East,95,16.0,16.0,67,0.00,,BKN200,0.00,VWS V14.01,2013-07-10 22:55:00,
2013-07-10 19:00:00,86.1,74.3,29.98,ESE,105,2.0,4.0,68,0.00,,BKN200,0.00,VWS V14.01,2013-07-10 23:00:00,
2013-07-10 19:05:00,85.8,74.5,29.98,ESE,104,8.0,14.0,69,0.00,,BKN250,0.00,VWS V14.01,2013-07-10 23:05:00,
2013-07-10 19:10:00,85.5,74.2,29.98,ENE,68,10.0,10.0,69,0.00,,BKN250,0.00,VWS V14.01,2013-07-10 23:10:00,
2013-07-10 19:15:00,85.0,74.1,29.98,ESE,110,6.0,6.0,70,0.00,,BKN250,0.00,VWS V14.01,2013-07-10 23:15:00,
2013-07-10 19:20:00,84.6,74.2,29.98,East,101,8.0,14.0,71,0.00,,BKN250,0.00,VWS V14.01,2013-07-10 23:20:00,
2013-07-10 19:25:00,84.4,74.0,29.98,ENE,78,4.0,14.0,71,0.00,,BKN250,0.00,VWS V14.01,2013-07-10 23:25:00,
2013-07-10 19:30:00,84.3,74.3,29.98,SE,128,6.0,6.0,72,0.00,,BKN250,0.00,VWS V14.01,2013-07-10 23:30:00,
2013-07-10 19:35:00,84.1,74.1,29.99,ESE,111,2.0,6.0,72,0.00,,BKN250,0.00,VWS V14.01,2013-07-10 23:35:00,
2013-07-10 19:40:00,83.9,73.9,29.99,ESE,115,8.0,10.0,72,0.00,,BKN250,0.00,VWS V14.01,2013-07-10 23:40:00,
2013-07-10 19:45:00,83.7,73.7,29.99,East,96,4.0,6.0,72,0.00,,BKN250,0.00,VWS V14.01,2013-07-10 23:45:00,
2013-07-10 19:50:00,83.6,73.6,29.99,ESE,116,6.0,6.0,72,0.00,,BKN250,0.00,VWS V14.01,2013-07-10 23:50:00,
2013-07-10 19:55:00,83.3,73.8,29.99,ENE,73,10.0,10.0,73,0.00,,BKN250,0.00,VWS V14.01,2013-07-10 23:55:00,
2013-07-10 20:01:00,83.0,73.5,29.99,East,86,6.0,6.0,73,0.00,,BKN250,0.00,VWS V14.01,2013-07-11 00:01:00,
2013-07-10 20:06:00,82.8,73.3,29.99,East,79,6.0,8.0,73,0.00,,BKN250,0.00,VWS V14.01,2013-07-11 00:06:00,
2013-07-10 20:11:00,82.8,73.3,29.99,East,99,4.0,10.0,73,0.00,,BKN250,0.00,VWS V14.01,2013-07-11 00:11:00,
2013-07-10 20:16:00,82.7,73.6,29.99,East,86,4.0,6.0,74,0.00,,BKN250,0.00,VWS V14.01,2013-07-11 00:16:00,
2013-07-10 20:21:00,82.4,73.3,29.99,ENE,68,0.0,4.0,74,0.00,,BKN250,0.00,VWS V14.01,2013-07-11 00:21:00,
2013-07-10 20:26:00,82.2,73.5,29.99,East,97,4.0,6.0,75,0.00,,BKN250,0.00,VWS V14.01,2013-07-11 00:26:00,
2013-07-10 20:31:00,82.1,73.4,29.99,ENE,78,2.0,4.0,75,0.00,,BKN250,0.00,VWS V14.01,2013-07-11 00:31:00,
2013-07-10 20:36:00,82.0,73.3,29.99,East,87,0.0,6.0,75,0.00,,BKN250,0.00,VWS V14.01,2013-07-11 00:36:00,
2013-07-10 20:41:00,81.8,73.1,30.00,ESE,115,2.0,8.0,75,0.00,,BKN250,0.00,VWS V14.01,2013-07-11 00:41:00,
2013-07-10 20:47:00,81.5,73.2,30.00,SE,133,0.0,4.0,76,0.00,,BKN250,0.00,VWS V14.01,2013-07-11 00:47:00,
2013-07-10 20:52:00,81.4,73.1,30.00,East,86,6.0,6.0,76,0.00,,BKN250,0.00,VWS V14.01,2013-07-11 00:52:00,
2013-07-10 20:57:00,81.4,73.1,30.00,East,99,0.0,4.0,76,0.00,,BKN250,0.00,VWS V14.01,2013-07-11 00:57:00,
2013-07-10 21:02:00,81.2,72.9,30.00,ESE,112,4.0,12.0,76,0.00,,SCT250,0.00,VWS V14.01,2013-07-11 01:02:00,
2013-07-10 21:07:00,81.1,73.2,30.00,East,99,0.0,4.0,77,0.00,,SCT250,0.00,VWS V14.01,2013-07-11 01:07:00,
2013-07-10 21:12:00,81.0,73.1,30.00,East,97,6.0,6.0,77,0.00,,SCT250,0.00,VWS V14.01,2013-07-11 01:12:00,
2013-07-10 21:17:00,80.9,73.0,30.00,ESE,109,4.0,6.0,77,0.00,,SCT250,0.00,VWS V14.01,2013-07-11 01:17:00,
2013-07-10 21:22:00,80.7,73.2,30.01,ENE,72,0.0,4.0,78,0.00,,SCT250,0.00,VWS V14.01,2013-07-11 01:22:00,
2013-07-10 21:23:00,80.7,73.2,30.01,East,84,2.0,4.0,78,0.00,,SCT250,0.00,VWS V14.01,2013-07-11 01:23:00,
2013-07-10 21:28:00,80.5,73.4,30.01,East,91,2.0,4.0,79,0.00,,SCT250,0.00,VWS V14.01,2013-07-11 01:28:00,
2013-07-10 21:34:00,80.4,73.3,30.02,ESE,103,2.0,4.0,79,0.00,,SCT250,0.00,VWS V14.01,2013-07-11 01:34:00,
2013-07-10 21:39:00,80.3,73.2,30.02,ESE,111,0.0,6.0,79,0.00,,SCT250,0.00,VWS V14.01,2013-07-11 01:39:00,
2013-07-10 21:44:00,80.2,73.1,30.02,ESE,103,0.0,4.0,79,0.00,,SCT250,0.00,VWS V14.01,2013-07-11 01:44:00,
2013-07-10 21:49:00,80.0,73.3,30.02,ESE,106,4.0,8.0,80,0.00,,SCT250,0.00,VWS V14.01,2013-07-11 01:49:00,
2013-07-10 21:54:00,79.9,73.2,30.03,ESE,106,0.0,2.0,80,0.00,,SCT250,0.00,VWS V14.01,2013-07-11 01:54:00,
2013-07-10 21:59:00,79.8,73.1,30.03,ESE,107,4.0,4.0,80,0.00,,SCT250,0.00,VWS V14.01,2013-07-11 01:59:00,
2013-07-10 22:04:00,79.7,73.4,30.03,ESE,107,0.0,4.0,81,0.00,,FEW250,0.00,VWS V14.01,2013-07-11 02:04:00,
2013-07-10 22:09:00,79.5,73.2,30.03,ESE,107,0.0,4.0,81,0.00,,FEW250,0.00,VWS V14.01,2013-07-11 02:09:00,
2013-07-10 22:14:00,79.5,73.5,30.03,East,101,0.0,2.0,82,0.00,,FEW250,0.00,VWS V14.01,2013-07-11 02:14:00,
2013-07-10 22:19:00,79.4,73.4,30.03,East,101,0.0,2.0,82,0.00,,FEW250,0.00,VWS V14.01,2013-07-11 02:19:00,
2013-07-10 22:24:00,79.3,73.3,30.03,East,101,2.0,2.0,82,0.00,,FEW250,0.00,VWS V14.01,2013-07-11 02:24:00,
2013-07-10 22:30:00,79.1,73.1,30.03,East,101,0.0,0.0,82,0.00,,FEW250,0.00,VWS V14.01,2013-07-11 02:30:00,
2013-07-10 22:35:00,79.0,73.4,30.03,East,101,0.0,0.0,83,0.00,,FEW250,0.00,VWS V14.01,2013-07-11 02:35:00,
2013-07-10 22:40:00,79.0,73.4,30.03,East,101,0.0,0.0,83,0.00,,FEW250,0.00,VWS V14.01,2013-07-11 02:40:00,
2013-07-10 22:45:00,78.9,72.9,30.03,ESE,105,2.0,2.0,82,0.00,,FEW250,0.00,VWS V14.01,2013-07-11 02:45:00,
2013-07-10 22:50:00,78.7,73.1,30.03,ESE,102,4.0,4.0,83,0.00,,FEW250,0.00,VWS V14.01,2013-07-11 02:50:00,
2013-07-10 22:55:00,78.7,73.1,30.03,ESE,106,0.0,2.0,83,0.00,,FEW250,0.00,VWS V14.01,2013-07-11 02:55:00,
2013-07-10 23:00:00,78.7,73.1,30.03,ESE,107,2.0,2.0,83,0.00,,FEW250,0.00,VWS V14.01,2013-07-11 03:00:00,
2013-07-10 23:05:00,78.6,73.0,30.03,ESE,107,0.0,0.0,83,0.00,,FEW250,0.00,VWS V14.01,2013-07-11 03:05:00,
2013-07-10 23:10:00,78.4,72.8,30.03,ESE,112,2.0,4.0,83,0.00,,FEW250,0.00,VWS V14.01,2013-07-11 03:10:00,
2013-07-10 23:15:00,78.2,72.6,30.04,ESE,107,0.0,4.0,83,0.00,,FEW250,0.00,VWS V14.01,2013-07-11 03:15:00,
2013-07-10 23:21:00,78.2,72.6,30.04,ESE,113,6.0,6.0,83,0.00,,FEW250,0.00,VWS V14.01,2013-07-11 03:21:00,
2013-07-10 23:26:00,78.2,72.3,30.04,East,101,2.0,4.0,82,0.00,,FEW250,0.00,VWS V14.01,2013-07-11 03:26:00,
2013-07-10 23:31:00,78.0,72.1,30.04,ESE,103,2.0,6.0,82,0.00,,FEW250,0.00,VWS V14.01,2013-07-11 03:31:00,
2013-07-10 23:36:00,77.7,71.8,30.05,ESE,109,4.0,4.0,82,0.00,,FEW250,0.00,VWS V14.01,2013-07-11 03:36:00,
2013-07-10 23:41:00,77.7,71.8,30.05,ESE,109,0.0,4.0,82,0.00,,FEW250,0.00,VWS V14.01,2013-07-11 03:41:00,
2013-07-10 23:46:00,77.7,71.8,30.05,ESE,109,0.0,2.0,82,0.00,,FEW250,0.00,VWS V14.01,2013-07-11 03:46:00,
2013-07-10 23:51:00,77.5,71.9,30.05,ESE,109,0.0,0.0,83,0.00,,FEW250,0.00,VWS V14.01,2013-07-11 03:51:00,
2013-07-10 23:56:00,77.3,71.7,30.05,ESE,109,0.0,2.0,83,0.00,,FEW250,0.00,VWS V14.01,2013-07-11 03:56:00,